sensor_id;sensor_type;location;lat;lon;timestamp;temperature;humidity
33673;DHT22;20011;51.510;9.942;2024-02-21T00:01:31;10.50;99.90
33673;DHT22;20011;51.510;9.942;2024-02-21T00:03:58;10.50;99.90
33673;DHT22;20011;51.510;9.942;2024-02-21T00:06:25;10.40;99.90
33673;DHT22;20011;51.510;9.942;2024-02-21T00:08:52;10.40;99.90
33673;DHT22;20011;51.510;9.942;2024-02-21T00:11:19;10.40;99.90
33673;DHT22;20011;51.510;9.942;2024-02-21T00:13:46;10.40;99.90
33673;DHT22;20011;51.510;9.942;2024-02-21T00:16:14;10.30;99.90
33673;DHT22;20011;51.510;9.942;2024-02-21T00:18:43;10.20;99.90
33673;DHT22;20011;51.510;9.942;2024-02-21T00:21:10;10.30;99.90
33673;DHT22;20011;51.510;9.942;2024-02-21T00:23:41;10.20;99.90
33673;DHT22;20011;51.510;9.942;2024-02-21T00:26:08;10.20;99.90
33673;DHT22;20011;51.510;9.942;2024-02-21T00:28:35;10.20;99.90
33673;DHT22;20011;51.510;9.942;2024-02-21T00:31:02;10.10;99.90
33673;DHT22;20011;51.510;9.942;2024-02-21T00:33:29;10.10;99.90
33673;DHT22;20011;51.510;9.942;2024-02-21T00:35:56;10.20;99.90
33673;DHT22;20011;51.510;9.942;2024-02-21T00:38:23;10.20;99.90
33673;DHT22;20011;51.510;9.942;2024-02-21T00:40:50;10.10;99.90
33673;DHT22;20011;51.510;9.942;2024-02-21T00:43:17;10.10;99.90
33673;DHT22;20011;51.510;9.942;2024-02-21T00:45:44;10.10;99.90
33673;DHT22;20011;51.510;9.942;2024-02-21T00:48:11;10.20;99.90
33673;DHT22;20011;51.510;9.942;2024-02-21T00:50:38;10.20;99.90
33673;DHT22;20011;51.510;9.942;2024-02-21T00:53:05;10.10;99.90
33673;DHT22;20011;51.510;9.942;2024-02-21T00:55:32;10.20;99.90
33673;DHT22;20011;51.510;9.942;2024-02-21T00:57:59;10.20;99.90
33673;DHT22;20011;51.510;9.942;2024-02-21T01:00:26;10.20;99.90
33673;DHT22;20011;51.510;9.942;2024-02-21T01:02:53;10.20;99.90
33673;DHT22;20011;51.510;9.942;2024-02-21T01:05:20;10.10;99.90
33673;DHT22;20011;51.510;9.942;2024-02-21T01:07:47;10.10;99.90
33673;DHT22;20011;51.510;9.942;2024-02-21T01:10:14;10.10;99.90
33673;DHT22;20011;51.510;9.942;2024-02-21T01:12:41;10.00;99.90
33673;DHT22;20011;51.510;9.942;2024-02-21T01:15:08;10.10;99.90
33673;DHT22;20011;51.510;9.942;2024-02-21T01:17:35;10.00;99.90
33673;DHT22;20011;51.510;9.942;2024-02-21T01:20:03;10.00;99.90
33673;DHT22;20011;51.510;9.942;2024-02-21T01:22:32;10.10;99.90
33673;DHT22;20011;51.510;9.942;2024-02-21T01:24:59;10.10;99.90
33673;DHT22;20011;51.510;9.942;2024-02-21T01:27:26;10.10;99.90
33673;DHT22;20011;51.510;9.942;2024-02-21T01:29:53;10.10;99.90
33673;DHT22;20011;51.510;9.942;2024-02-21T01:32:22;10.20;99.90
33673;DHT22;20011;51.510;9.942;2024-02-21T01:34:51;10.10;99.90
33673;DHT22;20011;51.510;9.942;2024-02-21T01:37:18;10.20;99.90
33673;DHT22;20011;51.510;9.942;2024-02-21T01:39:45;10.20;99.90
33673;DHT22;20011;51.510;9.942;2024-02-21T01:42:12;10.10;99.90
33673;DHT22;20011;51.510;9.942;2024-02-21T01:44:39;10.20;99.90
33673;DHT22;20011;51.510;9.942;2024-02-21T01:47:06;10.10;99.90
33673;DHT22;20011;51.510;9.942;2024-02-21T01:49:34;10.20;99.90
33673;DHT22;20011;51.510;9.942;2024-02-21T01:52:01;10.20;99.90
33673;DHT22;20011;51.510;9.942;2024-02-21T01:54:30;10.10;99.90
33673;DHT22;20011;51.510;9.942;2024-02-21T01:56:58;10.10;99.90
33673;DHT22;20011;51.510;9.942;2024-02-21T01:59:25;10.20;99.90
33673;DHT22;20011;51.510;9.942;2024-02-21T02:01:52;10.10;99.90
33673;DHT22;20011;51.510;9.942;2024-02-21T02:04:20;10.10;99.90
33673;DHT22;20011;51.510;9.942;2024-02-21T02:06:48;10.10;99.90
33673;DHT22;20011;51.510;9.942;2024-02-21T02:09:15;10.10;99.90
33673;DHT22;20011;51.510;9.942;2024-02-21T02:11:43;10.10;99.90
33673;DHT22;20011;51.510;9.942;2024-02-21T02:14:10;10.10;99.90
33673;DHT22;20011;51.510;9.942;2024-02-21T02:16:37;10.20;99.90
33673;DHT22;20011;51.510;9.942;2024-02-21T02:19:04;10.10;99.90
33673;DHT22;20011;51.510;9.942;2024-02-21T02:21:39;10.10;99.90
33673;DHT22;20011;51.510;9.942;2024-02-21T02:24:06;10.00;99.90
33673;DHT22;20011;51.510;9.942;2024-02-21T02:26:33;10.10;99.90
33673;DHT22;20011;51.510;9.942;2024-02-21T02:29:03;10.00;99.90
33673;DHT22;20011;51.510;9.942;2024-02-21T02:31:30;10.10;99.90
33673;DHT22;20011;51.510;9.942;2024-02-21T02:33:57;10.10;99.90
33673;DHT22;20011;51.510;9.942;2024-02-21T02:36:24;10.10;99.90
33673;DHT22;20011;51.510;9.942;2024-02-21T02:38:51;10.10;99.90
33673;DHT22;20011;51.510;9.942;2024-02-21T02:41:18;10.10;99.90
33673;DHT22;20011;51.510;9.942;2024-02-21T02:43:45;10.10;99.90
33673;DHT22;20011;51.510;9.942;2024-02-21T02:46:12;10.10;99.90
33673;DHT22;20011;51.510;9.942;2024-02-21T02:48:39;10.00;99.90
33673;DHT22;20011;51.510;9.942;2024-02-21T02:51:06;10.00;99.90
33673;DHT22;20011;51.510;9.942;2024-02-21T02:53:33;10.10;99.90
33673;DHT22;20011;51.510;9.942;2024-02-21T02:56:00;10.10;99.90
33673;DHT22;20011;51.510;9.942;2024-02-21T02:58:28;10.00;99.90
33673;DHT22;20011;51.510;9.942;2024-02-21T03:00:55;10.10;99.90
33673;DHT22;20011;51.510;9.942;2024-02-21T03:03:22;10.00;99.90
33673;DHT22;20011;51.510;9.942;2024-02-21T03:05:49;10.00;99.90
33673;DHT22;20011;51.510;9.942;2024-02-21T03:08:16;10.00;99.90
33673;DHT22;20011;51.510;9.942;2024-02-21T03:10:42;10.00;99.90
33673;DHT22;20011;51.510;9.942;2024-02-21T03:13:10;10.00;99.90
33673;DHT22;20011;51.510;9.942;2024-02-21T03:15:37;10.00;99.90
33673;DHT22;20011;51.510;9.942;2024-02-21T03:18:04;10.00;99.90
33673;DHT22;20011;51.510;9.942;2024-02-21T03:20:31;10.00;99.90
33673;DHT22;20011;51.510;9.942;2024-02-21T03:22:59;10.00;99.90
33673;DHT22;20011;51.510;9.942;2024-02-21T03:25:26;10.00;99.90
33673;DHT22;20011;51.510;9.942;2024-02-21T03:27:53;10.00;99.90
33673;DHT22;20011;51.510;9.942;2024-02-21T03:30:20;10.00;99.90
33673;DHT22;20011;51.510;9.942;2024-02-21T03:32:47;10.20;99.90
33673;DHT22;20011;51.510;9.942;2024-02-21T03:35:14;10.10;99.90
33673;DHT22;20011;51.510;9.942;2024-02-21T03:37:41;10.00;99.90
33673;DHT22;20011;51.510;9.942;2024-02-21T03:40:09;10.10;99.90
33673;DHT22;20011;51.510;9.942;2024-02-21T03:42:37;10.10;99.90
33673;DHT22;20011;51.510;9.942;2024-02-21T03:45:04;10.10;99.90
33673;DHT22;20011;51.510;9.942;2024-02-21T03:47:31;10.00;99.90
33673;DHT22;20011;51.510;9.942;2024-02-21T03:49:58;10.10;99.90
33673;DHT22;20011;51.510;9.942;2024-02-21T03:52:27;10.10;99.90
33673;DHT22;20011;51.510;9.942;2024-02-21T03:54:53;10.10;99.90
33673;DHT22;20011;51.510;9.942;2024-02-21T03:57:21;10.10;99.90
33673;DHT22;20011;51.510;9.942;2024-02-21T03:59:51;10.10;99.90
33673;DHT22;20011;51.510;9.942;2024-02-21T04:02:19;10.10;99.90
33673;DHT22;20011;51.510;9.942;2024-02-21T04:04:46;10.10;99.90
33673;DHT22;20011;51.510;9.942;2024-02-21T04:07:14;10.10;99.90
33673;DHT22;20011;51.510;9.942;2024-02-21T04:09:41;10.10;99.90
33673;DHT22;20011;51.510;9.942;2024-02-21T04:12:08;10.20;99.90
33673;DHT22;20011;51.510;9.942;2024-02-21T04:14:36;10.20;99.90
33673;DHT22;20011;51.510;9.942;2024-02-21T04:17:03;10.20;99.90
33673;DHT22;20011;51.510;9.942;2024-02-21T04:19:32;10.20;99.90
33673;DHT22;20011;51.510;9.942;2024-02-21T04:22:00;10.10;99.90
33673;DHT22;20011;51.510;9.942;2024-02-21T04:24:27;10.20;99.90
33673;DHT22;20011;51.510;9.942;2024-02-21T04:26:54;10.20;99.90
33673;DHT22;20011;51.510;9.942;2024-02-21T04:29:21;10.20;99.90
33673;DHT22;20011;51.510;9.942;2024-02-21T04:31:48;10.20;99.90
33673;DHT22;20011;51.510;9.942;2024-02-21T04:34:15;10.20;99.90
33673;DHT22;20011;51.510;9.942;2024-02-21T04:36:43;10.20;99.90
33673;DHT22;20011;51.510;9.942;2024-02-21T04:39:10;10.10;99.90
33673;DHT22;20011;51.510;9.942;2024-02-21T04:41:38;10.20;99.90
33673;DHT22;20011;51.510;9.942;2024-02-21T04:44:05;10.20;99.90
33673;DHT22;20011;51.510;9.942;2024-02-21T04:46:32;10.20;99.90
33673;DHT22;20011;51.510;9.942;2024-02-21T04:48:59;10.10;99.90
33673;DHT22;20011;51.510;9.942;2024-02-21T04:51:26;10.20;99.90
33673;DHT22;20011;51.510;9.942;2024-02-21T04:53:52;10.10;99.90
33673;DHT22;20011;51.510;9.942;2024-02-21T04:56:19;10.20;99.90
33673;DHT22;20011;51.510;9.942;2024-02-21T04:58:46;10.20;99.90
33673;DHT22;20011;51.510;9.942;2024-02-21T05:01:13;10.20;99.90
33673;DHT22;20011;51.510;9.942;2024-02-21T05:03:40;10.20;99.90
33673;DHT22;20011;51.510;9.942;2024-02-21T05:06:07;10.20;99.90
33673;DHT22;20011;51.510;9.942;2024-02-21T05:08:34;10.20;99.90
33673;DHT22;20011;51.510;9.942;2024-02-21T05:11:01;10.20;99.90
33673;DHT22;20011;51.510;9.942;2024-02-21T05:13:28;10.20;99.90
33673;DHT22;20011;51.510;9.942;2024-02-21T05:15:55;10.20;99.90
33673;DHT22;20011;51.510;9.942;2024-02-21T05:18:22;10.20;99.90
33673;DHT22;20011;51.510;9.942;2024-02-21T05:20:49;10.20;99.90
33673;DHT22;20011;51.510;9.942;2024-02-21T05:23:16;10.20;99.90
33673;DHT22;20011;51.510;9.942;2024-02-21T05:25:43;10.20;99.90
33673;DHT22;20011;51.510;9.942;2024-02-21T05:28:10;10.20;99.90
33673;DHT22;20011;51.510;9.942;2024-02-21T05:30:37;10.20;99.90
33673;DHT22;20011;51.510;9.942;2024-02-21T05:33:07;10.20;99.90
33673;DHT22;20011;51.510;9.942;2024-02-21T05:35:35;10.20;99.90
33673;DHT22;20011;51.510;9.942;2024-02-21T05:38:02;10.20;99.90
33673;DHT22;20011;51.510;9.942;2024-02-21T05:40:33;10.10;99.90
33673;DHT22;20011;51.510;9.942;2024-02-21T05:43:00;10.10;99.90
33673;DHT22;20011;51.510;9.942;2024-02-21T05:45:27;10.10;99.90
33673;DHT22;20011;51.510;9.942;2024-02-21T05:47:55;10.10;99.90
33673;DHT22;20011;51.510;9.942;2024-02-21T05:50:24;10.10;99.90
33673;DHT22;20011;51.510;9.942;2024-02-21T05:52:54;10.10;99.90
33673;DHT22;20011;51.510;9.942;2024-02-21T05:55:22;10.10;99.90
33673;DHT22;20011;51.510;9.942;2024-02-21T05:57:50;10.10;99.90
33673;DHT22;20011;51.510;9.942;2024-02-21T06:00:20;10.10;99.90
33673;DHT22;20011;51.510;9.942;2024-02-21T06:02:46;10.10;99.90
33673;DHT22;20011;51.510;9.942;2024-02-21T06:05:13;10.10;99.90
33673;DHT22;20011;51.510;9.942;2024-02-21T06:07:40;10.10;99.90
33673;DHT22;20011;51.510;9.942;2024-02-21T06:10:08;10.20;99.90
33673;DHT22;20011;51.510;9.942;2024-02-21T06:12:35;10.10;99.90
33673;DHT22;20011;51.510;9.942;2024-02-21T06:15:02;10.10;99.90
33673;DHT22;20011;51.510;9.942;2024-02-21T06:17:29;10.10;99.90
33673;DHT22;20011;51.510;9.942;2024-02-21T06:19:56;10.10;99.90
33673;DHT22;20011;51.510;9.942;2024-02-21T06:22:23;10.10;99.90
33673;DHT22;20011;51.510;9.942;2024-02-21T06:24:50;10.10;99.90
33673;DHT22;20011;51.510;9.942;2024-02-21T06:27:17;10.10;99.90
33673;DHT22;20011;51.510;9.942;2024-02-21T06:29:44;10.10;99.90
33673;DHT22;20011;51.510;9.942;2024-02-21T06:32:11;10.20;99.90
33673;DHT22;20011;51.510;9.942;2024-02-21T06:34:39;10.20;99.90
33673;DHT22;20011;51.510;9.942;2024-02-21T06:37:06;10.10;99.90
33673;DHT22;20011;51.510;9.942;2024-02-21T06:39:33;10.10;99.90
33673;DHT22;20011;51.510;9.942;2024-02-21T06:42:00;10.20;99.90
33673;DHT22;20011;51.510;9.942;2024-02-21T06:44:29;10.20;99.90
33673;DHT22;20011;51.510;9.942;2024-02-21T06:46:56;10.20;99.90
33673;DHT22;20011;51.510;9.942;2024-02-21T06:49:25;10.20;99.90
33673;DHT22;20011;51.510;9.942;2024-02-21T06:51:52;10.10;99.90
33673;DHT22;20011;51.510;9.942;2024-02-21T06:54:19;10.20;99.90
33673;DHT22;20011;51.510;9.942;2024-02-21T06:56:46;10.20;99.90
33673;DHT22;20011;51.510;9.942;2024-02-21T06:59:13;10.10;99.90
33673;DHT22;20011;51.510;9.942;2024-02-21T07:01:53;10.10;99.90
33673;DHT22;20011;51.510;9.942;2024-02-21T07:04:20;10.20;99.90
33673;DHT22;20011;51.510;9.942;2024-02-21T07:06:47;10.20;99.90
33673;DHT22;20011;51.510;9.942;2024-02-21T07:09:14;10.10;99.90
33673;DHT22;20011;51.510;9.942;2024-02-21T07:11:41;10.20;99.90
33673;DHT22;20011;51.510;9.942;2024-02-21T07:14:08;10.20;99.90
33673;DHT22;20011;51.510;9.942;2024-02-21T07:16:35;10.20;99.90
33673;DHT22;20011;51.510;9.942;2024-02-21T07:19:03;10.10;99.90
33673;DHT22;20011;51.510;9.942;2024-02-21T07:21:32;10.20;99.90
33673;DHT22;20011;51.510;9.942;2024-02-21T07:23:59;10.20;99.90
33673;DHT22;20011;51.510;9.942;2024-02-21T07:26:26;10.20;99.90
33673;DHT22;20011;51.510;9.942;2024-02-21T07:28:53;10.20;99.90
33673;DHT22;20011;51.510;9.942;2024-02-21T07:31:20;10.30;99.90
33673;DHT22;20011;51.510;9.942;2024-02-21T07:33:47;10.30;99.90
33673;DHT22;20011;51.510;9.942;2024-02-21T07:36:15;10.30;99.90
33673;DHT22;20011;51.510;9.942;2024-02-21T07:38:42;10.30;99.90
33673;DHT22;20011;51.510;9.942;2024-02-21T07:41:09;10.30;99.90
33673;DHT22;20011;51.510;9.942;2024-02-21T07:43:35;10.20;99.90
33673;DHT22;20011;51.510;9.942;2024-02-21T07:46:03;10.30;99.90
33673;DHT22;20011;51.510;9.942;2024-02-21T07:48:30;10.20;99.90
33673;DHT22;20011;51.510;9.942;2024-02-21T07:51:00;10.30;99.90
33673;DHT22;20011;51.510;9.942;2024-02-21T07:53:27;10.20;99.90
33673;DHT22;20011;51.510;9.942;2024-02-21T07:55:54;10.20;99.90
33673;DHT22;20011;51.510;9.942;2024-02-21T07:58:21;10.20;99.90
33673;DHT22;20011;51.510;9.942;2024-02-21T08:00:48;10.20;99.90
33673;DHT22;20011;51.510;9.942;2024-02-21T08:03:15;10.30;99.90
33673;DHT22;20011;51.510;9.942;2024-02-21T08:05:44;10.30;99.90
33673;DHT22;20011;51.510;9.942;2024-02-21T08:08:12;10.40;99.90
33673;DHT22;20011;51.510;9.942;2024-02-21T08:10:45;10.40;99.90
33673;DHT22;20011;51.510;9.942;2024-02-21T08:13:12;10.40;99.90
33673;DHT22;20011;51.510;9.942;2024-02-21T08:15:39;10.40;99.90
33673;DHT22;20011;51.510;9.942;2024-02-21T08:18:08;10.40;99.90
33673;DHT22;20011;51.510;9.942;2024-02-21T08:20:35;10.50;99.90
33673;DHT22;20011;51.510;9.942;2024-02-21T08:23:03;10.60;99.90
33673;DHT22;20011;51.510;9.942;2024-02-21T08:25:30;10.50;99.90
33673;DHT22;20011;51.510;9.942;2024-02-21T08:27:58;10.60;99.90
33673;DHT22;20011;51.510;9.942;2024-02-21T08:30:25;10.60;99.90
33673;DHT22;20011;51.510;9.942;2024-02-21T08:32:52;10.70;99.90
33673;DHT22;20011;51.510;9.942;2024-02-21T08:35:21;10.60;99.90
33673;DHT22;20011;51.510;9.942;2024-02-21T08:37:51;10.60;99.90
33673;DHT22;20011;51.510;9.942;2024-02-21T08:40:18;10.60;99.90
33673;DHT22;20011;51.510;9.942;2024-02-21T08:42:48;10.60;99.90
33673;DHT22;20011;51.510;9.942;2024-02-21T08:45:15;10.70;99.90
33673;DHT22;20011;51.510;9.942;2024-02-21T08:47:43;10.60;99.90
33673;DHT22;20011;51.510;9.942;2024-02-21T08:50:10;10.70;99.90
33673;DHT22;20011;51.510;9.942;2024-02-21T08:52:53;10.80;99.90
33673;DHT22;20011;51.510;9.942;2024-02-21T08:55:20;10.80;99.90
33673;DHT22;20011;51.510;9.942;2024-02-21T08:57:47;10.80;99.90
33673;DHT22;20011;51.510;9.942;2024-02-21T09:00:15;10.90;99.90
33673;DHT22;20011;51.510;9.942;2024-02-21T09:02:42;10.90;99.90
33673;DHT22;20011;51.510;9.942;2024-02-21T09:05:12;10.90;99.90
33673;DHT22;20011;51.510;9.942;2024-02-21T09:07:39;10.90;99.90
33673;DHT22;20011;51.510;9.942;2024-02-21T09:10:06;10.90;99.90
33673;DHT22;20011;51.510;9.942;2024-02-21T09:12:34;11.00;99.90
33673;DHT22;20011;51.510;9.942;2024-02-21T09:15:00;11.00;99.90
33673;DHT22;20011;51.510;9.942;2024-02-21T09:17:27;11.00;99.90
33673;DHT22;20011;51.510;9.942;2024-02-21T09:19:56;11.00;99.90
33673;DHT22;20011;51.510;9.942;2024-02-21T09:22:26;11.00;99.90
33673;DHT22;20011;51.510;9.942;2024-02-21T09:24:54;11.20;99.90
33673;DHT22;20011;51.510;9.942;2024-02-21T09:27:20;11.20;99.90
33673;DHT22;20011;51.510;9.942;2024-02-21T09:29:49;11.20;99.90
33673;DHT22;20011;51.510;9.942;2024-02-21T09:32:18;11.20;99.90
33673;DHT22;20011;51.510;9.942;2024-02-21T09:34:45;11.20;99.90
33673;DHT22;20011;51.510;9.942;2024-02-21T09:37:13;11.20;99.90
33673;DHT22;20011;51.510;9.942;2024-02-21T09:39:40;11.30;99.90
33673;DHT22;20011;51.510;9.942;2024-02-21T09:42:07;11.30;99.90
33673;DHT22;20011;51.510;9.942;2024-02-21T09:44:37;11.30;99.90
33673;DHT22;20011;51.510;9.942;2024-02-21T09:47:39;11.40;99.90
33673;DHT22;20011;51.510;9.942;2024-02-21T09:50:07;11.40;99.90
33673;DHT22;20011;51.510;9.942;2024-02-21T09:52:35;11.50;99.90
33673;DHT22;20011;51.510;9.942;2024-02-21T09:55:04;11.40;99.90
33673;DHT22;20011;51.510;9.942;2024-02-21T09:57:32;11.40;99.90
33673;DHT22;20011;51.510;9.942;2024-02-21T10:00:00;11.40;99.90
33673;DHT22;20011;51.510;9.942;2024-02-21T10:02:39;11.40;99.90
33673;DHT22;20011;51.510;9.942;2024-02-21T10:05:06;11.40;99.90
33673;DHT22;20011;51.510;9.942;2024-02-21T10:07:35;11.50;99.90
33673;DHT22;20011;51.510;9.942;2024-02-21T10:10:03;11.40;99.90
33673;DHT22;20011;51.510;9.942;2024-02-21T10:12:30;11.40;99.90
33673;DHT22;20011;51.510;9.942;2024-02-21T10:15:04;11.40;99.90
33673;DHT22;20011;51.510;9.942;2024-02-21T10:17:35;11.40;99.90
33673;DHT22;20011;51.510;9.942;2024-02-21T10:20:10;11.40;99.90
33673;DHT22;20011;51.510;9.942;2024-02-21T10:22:38;11.30;99.90
33673;DHT22;20011;51.510;9.942;2024-02-21T10:25:10;11.30;99.90
33673;DHT22;20011;51.510;9.942;2024-02-21T10:27:38;11.40;99.90
33673;DHT22;20011;51.510;9.942;2024-02-21T10:30:07;11.30;99.90
33673;DHT22;20011;51.510;9.942;2024-02-21T10:32:52;11.40;99.90
33673;DHT22;20011;51.510;9.942;2024-02-21T10:35:30;11.40;99.90
33673;DHT22;20011;51.510;9.942;2024-02-21T10:37:59;11.40;99.90
33673;DHT22;20011;51.510;9.942;2024-02-21T10:40:28;11.50;99.90
33673;DHT22;20011;51.510;9.942;2024-02-21T10:43:00;11.50;99.90
33673;DHT22;20011;51.510;9.942;2024-02-21T10:45:36;11.50;99.90
33673;DHT22;20011;51.510;9.942;2024-02-21T10:48:13;11.60;99.90
33673;DHT22;20011;51.510;9.942;2024-02-21T10:56:56;11.70;99.90
33673;DHT22;20011;51.510;9.942;2024-02-21T10:59:24;11.80;99.90
33673;DHT22;20011;51.510;9.942;2024-02-21T11:01:53;11.80;99.90
33673;DHT22;20011;51.510;9.942;2024-02-21T11:04:25;11.90;99.90
33673;DHT22;20011;51.510;9.942;2024-02-21T11:06:53;11.80;99.90
33673;DHT22;20011;51.510;9.942;2024-02-21T11:09:30;11.90;99.90
33673;DHT22;20011;51.510;9.942;2024-02-21T11:12:03;11.90;99.90
33673;DHT22;20011;51.510;9.942;2024-02-21T11:14:31;11.90;99.90
33673;DHT22;20011;51.510;9.942;2024-02-21T11:17:24;11.90;99.90
33673;DHT22;20011;51.510;9.942;2024-02-21T11:19:54;11.90;99.90
33673;DHT22;20011;51.510;9.942;2024-02-21T11:22:21;11.90;99.90
33673;DHT22;20011;51.510;9.942;2024-02-21T11:24:51;11.90;99.90
33673;DHT22;20011;51.510;9.942;2024-02-21T11:27:22;12.00;99.90
33673;DHT22;20011;51.510;9.942;2024-02-21T11:29:57;12.00;99.90
33673;DHT22;20011;51.510;9.942;2024-02-21T11:32:26;12.00;99.90
33673;DHT22;20011;51.510;9.942;2024-02-21T11:37:21;12.00;99.90
33673;DHT22;20011;51.510;9.942;2024-02-21T11:39:51;12.00;99.90
33673;DHT22;20011;51.510;9.942;2024-02-21T11:42:19;12.00;99.90
33673;DHT22;20011;51.510;9.942;2024-02-21T11:44:46;12.00;99.90
33673;DHT22;20011;51.510;9.942;2024-02-21T11:47:14;12.10;99.90
33673;DHT22;20011;51.510;9.942;2024-02-21T11:49:48;12.10;99.90
33673;DHT22;20011;51.510;9.942;2024-02-21T11:52:17;12.30;99.90
33673;DHT22;20011;51.510;9.942;2024-02-21T11:54:46;12.60;99.90
33673;DHT22;20011;51.510;9.942;2024-02-21T11:57:13;12.80;99.90
33673;DHT22;20011;51.510;9.942;2024-02-21T11:59:40;13.20;99.90
33673;DHT22;20011;51.510;9.942;2024-02-21T12:02:07;13.40;99.90
33673;DHT22;20011;51.510;9.942;2024-02-21T12:04:36;13.40;99.90
33673;DHT22;20011;51.510;9.942;2024-02-21T12:07:03;13.40;99.90
33673;DHT22;20011;51.510;9.942;2024-02-21T12:09:31;13.40;99.90
33673;DHT22;20011;51.510;9.942;2024-02-21T12:11:59;13.40;99.90
33673;DHT22;20011;51.510;9.942;2024-02-21T12:14:29;13.50;99.90
33673;DHT22;20011;51.510;9.942;2024-02-21T12:17:00;13.60;99.90
33673;DHT22;20011;51.510;9.942;2024-02-21T12:19:32;13.60;99.90
33673;DHT22;20011;51.510;9.942;2024-02-21T12:22:00;13.60;99.90
33673;DHT22;20011;51.510;9.942;2024-02-21T12:24:28;13.60;99.90
33673;DHT22;20011;51.510;9.942;2024-02-21T12:26:56;13.30;99.90
33673;DHT22;20011;51.510;9.942;2024-02-21T12:29:24;13.20;99.90
33673;DHT22;20011;51.510;9.942;2024-02-21T12:31:55;13.10;99.90
33673;DHT22;20011;51.510;9.942;2024-02-21T12:34:23;13.20;99.90
33673;DHT22;20011;51.510;9.942;2024-02-21T12:37:04;13.10;99.90
33673;DHT22;20011;51.510;9.942;2024-02-21T12:39:31;13.00;99.90
33673;DHT22;20011;51.510;9.942;2024-02-21T12:41:59;12.90;99.90
33673;DHT22;20011;51.510;9.942;2024-02-21T12:44:26;12.80;99.90
33673;DHT22;20011;51.510;9.942;2024-02-21T12:46:54;12.60;99.90
33673;DHT22;20011;51.510;9.942;2024-02-21T12:49:22;12.60;99.90
33673;DHT22;20011;51.510;9.942;2024-02-21T12:51:49;12.60;99.90
33673;DHT22;20011;51.510;9.942;2024-02-21T12:54:16;12.50;99.90
33673;DHT22;20011;51.510;9.942;2024-02-21T12:56:43;12.40;99.90
33673;DHT22;20011;51.510;9.942;2024-02-21T12:59:10;12.40;99.90
33673;DHT22;20011;51.510;9.942;2024-02-21T13:01:37;12.40;99.90
33673;DHT22;20011;51.510;9.942;2024-02-21T13:04:05;12.40;99.90
33673;DHT22;20011;51.510;9.942;2024-02-21T13:06:32;12.40;99.90
33673;DHT22;20011;51.510;9.942;2024-02-21T13:09:00;12.30;99.90
33673;DHT22;20011;51.510;9.942;2024-02-21T13:11:30;12.30;99.90
33673;DHT22;20011;51.510;9.942;2024-02-21T13:13:58;12.20;99.90
33673;DHT22;20011;51.510;9.942;2024-02-21T13:16:26;12.20;99.90
33673;DHT22;20011;51.510;9.942;2024-02-21T13:18:54;12.20;99.90
33673;DHT22;20011;51.510;9.942;2024-02-21T13:21:21;12.10;99.90
33673;DHT22;20011;51.510;9.942;2024-02-21T13:23:48;12.10;99.90
33673;DHT22;20011;51.510;9.942;2024-02-21T13:26:15;12.10;99.90
33673;DHT22;20011;51.510;9.942;2024-02-21T13:28:42;12.00;99.90
33673;DHT22;20011;51.510;9.942;2024-02-21T13:31:11;12.00;99.90
33673;DHT22;20011;51.510;9.942;2024-02-21T13:33:38;11.90;99.90
33673;DHT22;20011;51.510;9.942;2024-02-21T13:36:06;12.00;99.90
33673;DHT22;20011;51.510;9.942;2024-02-21T13:38:33;11.90;99.90
33673;DHT22;20011;51.510;9.942;2024-02-21T13:41:00;11.80;99.90
33673;DHT22;20011;51.510;9.942;2024-02-21T13:43:27;11.80;99.90
33673;DHT22;20011;51.510;9.942;2024-02-21T13:46:03;11.80;99.90
33673;DHT22;20011;51.510;9.942;2024-02-21T13:48:32;11.90;99.90
33673;DHT22;20011;51.510;9.942;2024-02-21T13:51:00;11.80;99.90
33673;DHT22;20011;51.510;9.942;2024-02-21T13:53:29;11.90;99.90
33673;DHT22;20011;51.510;9.942;2024-02-21T13:55:56;11.80;99.90
33673;DHT22;20011;51.510;9.942;2024-02-21T13:58:23;11.80;99.90
33673;DHT22;20011;51.510;9.942;2024-02-21T14:00:50;11.80;99.90
33673;DHT22;20011;51.510;9.942;2024-02-21T14:03:17;11.80;99.90
33673;DHT22;20011;51.510;9.942;2024-02-21T14:05:46;11.80;99.90
33673;DHT22;20011;51.510;9.942;2024-02-21T14:08:15;11.80;99.90
33673;DHT22;20011;51.510;9.942;2024-02-21T14:10:42;11.90;99.90
33673;DHT22;20011;51.510;9.942;2024-02-21T14:13:09;11.80;99.90
33673;DHT22;20011;51.510;9.942;2024-02-21T14:15:36;11.90;99.90
33673;DHT22;20011;51.510;9.942;2024-02-21T14:18:04;11.80;99.90
33673;DHT22;20011;51.510;9.942;2024-02-21T14:20:36;11.80;99.90
33673;DHT22;20011;51.510;9.942;2024-02-21T14:23:03;11.90;99.90
33673;DHT22;20011;51.510;9.942;2024-02-21T14:25:31;11.90;99.90
33673;DHT22;20011;51.510;9.942;2024-02-21T14:28:00;12.00;99.90
33673;DHT22;20011;51.510;9.942;2024-02-21T14:30:30;11.90;99.90
33673;DHT22;20011;51.510;9.942;2024-02-21T14:32:57;11.90;99.90
33673;DHT22;20011;51.510;9.942;2024-02-21T14:35:24;11.90;99.90
33673;DHT22;20011;51.510;9.942;2024-02-21T14:37:51;12.00;99.90
33673;DHT22;20011;51.510;9.942;2024-02-21T14:40:20;11.90;99.90
33673;DHT22;20011;51.510;9.942;2024-02-21T14:42:47;11.90;99.90
33673;DHT22;20011;51.510;9.942;2024-02-21T14:45:14;11.80;99.90
33673;DHT22;20011;51.510;9.942;2024-02-21T14:47:41;11.90;99.90
33673;DHT22;20011;51.510;9.942;2024-02-21T14:50:09;11.80;99.90
33673;DHT22;20011;51.510;9.942;2024-02-21T14:52:36;11.80;99.90
33673;DHT22;20011;51.510;9.942;2024-02-21T14:55:04;11.80;99.90
33673;DHT22;20011;51.510;9.942;2024-02-21T14:57:32;11.70;99.90
33673;DHT22;20011;51.510;9.942;2024-02-21T14:59:59;11.70;99.90
33673;DHT22;20011;51.510;9.942;2024-02-21T15:02:27;11.80;99.90
33673;DHT22;20011;51.510;9.942;2024-02-21T15:04:55;11.70;99.90
33673;DHT22;20011;51.510;9.942;2024-02-21T15:07:23;11.70;99.90
33673;DHT22;20011;51.510;9.942;2024-02-21T15:09:53;11.80;99.90
33673;DHT22;20011;51.510;9.942;2024-02-21T15:12:20;11.70;99.90
33673;DHT22;20011;51.510;9.942;2024-02-21T15:14:50;11.70;99.90
33673;DHT22;20011;51.510;9.942;2024-02-21T15:17:18;11.60;99.90
33673;DHT22;20011;51.510;9.942;2024-02-21T15:19:45;11.60;99.90
33673;DHT22;20011;51.510;9.942;2024-02-21T15:22:14;11.70;99.90
33673;DHT22;20011;51.510;9.942;2024-02-21T15:24:41;11.60;99.90
33673;DHT22;20011;51.510;9.942;2024-02-21T15:27:09;11.70;99.90
33673;DHT22;20011;51.510;9.942;2024-02-21T15:29:36;11.60;99.90
33673;DHT22;20011;51.510;9.942;2024-02-21T15:32:03;11.70;99.90
33673;DHT22;20011;51.510;9.942;2024-02-21T15:34:31;11.60;99.90
33673;DHT22;20011;51.510;9.942;2024-02-21T15:36:58;11.70;99.90
33673;DHT22;20011;51.510;9.942;2024-02-21T15:39:26;11.60;99.90
33673;DHT22;20011;51.510;9.942;2024-02-21T15:41:54;11.60;99.90
33673;DHT22;20011;51.510;9.942;2024-02-21T15:44:22;11.60;99.90